<?xml version='1.0' encoding='UTF-8'?>
<gpx xmlns="http://www.topografix.com/GPX/1/1" creator="www.balnam.be" version="1.1" xmlns:xsi="http://www.w3.org/2001/XMLSchema-instance" xsi:schemaLocation="http://www.topografix.com/GPX/1/1 http://www.topografix.com/GPX/1/1/gpx.xsd">
<trk>
<name>xnsls33</name>
<cmt>v</cmt>
<desc>Lesterny Sentier n°33 Chemin de Lesterny</desc>
<link href="https://chemins.be/lesterny/sentier/33"/><trkseg>
<trkpt lat="50.113351" lon="5.283279"><time>2026-05-02T21:18:48Z</time></trkpt>
<trkpt lat="50.113592" lon="5.283549"><time>2026-05-02T21:28:48Z</time></trkpt>
<trkpt lat="50.113530" lon="5.283839"><time>2026-05-02T21:38:48Z</time></trkpt>
<trkpt lat="50.112958" lon="5.284864"><time>2026-05-02T21:48:48Z</time></trkpt>
<trkpt lat="50.111976" lon="5.287208"><time>2026-05-02T21:58:48Z</time></trkpt>
<trkpt lat="50.111433" lon="5.288043"><time>2026-05-02T22:08:48Z</time></trkpt>
<trkpt lat="50.111180" lon="5.288728"><time>2026-05-02T22:18:48Z</time></trkpt>
<trkpt lat="50.110993" lon="5.291307"><time>2026-05-02T22:28:48Z</time></trkpt>
</trkseg></trk>
<trk>
<name>xnsls33</name>
<cmt>d</cmt>
<desc>Lesterny Sentier n°33 Chemin de Lesterny</desc>
<link href="https://chemins.be/lesterny/sentier/33"/><trkseg>
<trkpt lat="50.110993" lon="5.291307"><time>2026-05-02T22:28:48Z</time></trkpt>
<trkpt lat="50.110317" lon="5.293004"><time>2026-05-02T22:38:48Z</time></trkpt>
<trkpt lat="50.110348" lon="5.293804"><time>2026-05-02T22:48:48Z</time></trkpt>
</trkseg></trk>
<trk>
<name>xnsls33</name>
<cmt>v</cmt>
<desc>Lesterny Sentier n°33 Chemin de Lesterny</desc>
<link href="https://chemins.be/lesterny/sentier/33"/><trkseg>
<trkpt lat="50.110348" lon="5.293804"><time>2026-05-02T22:48:48Z</time></trkpt>
<trkpt lat="50.109827" lon="5.294137"><time>2026-05-02T22:58:48Z</time></trkpt>
<trkpt lat="50.108029" lon="5.294851"><time>2026-05-02T23:08:48Z</time></trkpt>
<trkpt lat="50.107334" lon="5.294822"><time>2026-05-02T23:18:48Z</time></trkpt>
<trkpt lat="50.107034" lon="5.295035"><time>2026-05-02T23:28:48Z</time></trkpt>
</trkseg></trk>
<trk>
<name>xnsls33</name>
<cmt>d</cmt>
<desc>Lesterny Sentier n°33 Chemin de Lesterny</desc>
<link href="https://chemins.be/lesterny/sentier/33"/><trkseg>
<trkpt lat="50.107034" lon="5.295035"><time>2026-05-02T23:28:48Z</time></trkpt>
<trkpt lat="50.106776" lon="5.295239"><time>2026-05-02T23:38:48Z</time></trkpt>
<trkpt lat="50.106466" lon="5.295272"><time>2026-05-02T23:48:48Z</time></trkpt>
<trkpt lat="50.104214" lon="5.294021"><time>2026-05-02T23:58:48Z</time></trkpt>
<trkpt lat="50.103548" lon="5.294093"><time>2026-05-03T00:08:48Z</time></trkpt>
<trkpt lat="50.103279" lon="5.294304"><time>2026-05-03T00:18:48Z</time></trkpt>
<trkpt lat="50.102520" lon="5.294782"><time>2026-05-03T00:28:48Z</time></trkpt>
</trkseg></trk>
<trk>
<name>xnsls33</name>
<cmt>s</cmt>
<desc>Lesterny Sentier n°33 Chemin de Lesterny</desc>
<link href="https://chemins.be/lesterny/sentier/33"/><trkseg>
<trkpt lat="50.102520" lon="5.294782"><time>2026-05-03T00:28:48Z</time></trkpt>
<trkpt lat="50.102274" lon="5.294896"><time>2026-05-03T00:38:48Z</time></trkpt>
</trkseg></trk>
<trk>
<name>xnsls33</name>
<cmt>d</cmt>
<desc>Lesterny Sentier n°33 Chemin de Lesterny</desc>
<link href="https://chemins.be/lesterny/sentier/33"/><trkseg>
<trkpt lat="50.102274" lon="5.294896"><time>2026-05-03T00:38:48Z</time></trkpt>
<trkpt lat="50.101720" lon="5.295390"><time>2026-05-03T00:48:48Z</time></trkpt>
<trkpt lat="50.098732" lon="5.296386"><time>2026-05-03T00:58:48Z</time></trkpt>
<trkpt lat="50.098274" lon="5.295956"><time>2026-05-03T01:08:48Z</time></trkpt>
</trkseg></trk>
<trk>
<name>xnsls33</name>
<cmt>v</cmt>
<desc>Lesterny Sentier n°33 Chemin de Lesterny</desc>
<link href="https://chemins.be/lesterny/sentier/33"/><trkseg>
<trkpt lat="50.098274" lon="5.295956"><time>2026-05-03T01:08:48Z</time></trkpt>
<trkpt lat="50.097741" lon="5.295936"><time>2026-05-03T01:18:48Z</time></trkpt>
<trkpt lat="50.095466" lon="5.297282"><time>2026-05-03T01:28:48Z</time></trkpt>
<trkpt lat="50.093704" lon="5.299235"><time>2026-05-03T01:38:48Z</time></trkpt>
<trkpt lat="50.091936" lon="5.299374"><time>2026-05-03T01:48:48Z</time></trkpt>
</trkseg>
</trk>
</gpx>